Terminal Aerodrome Forecast
Issued by NWS Cleveland, OH

Home | Current Version | Previous Version | Text Only | Print | Product List | Glossary Off
Versions: 1 2 3 4 5 6 7 8 9 10 11 12 13 14 15 16 17 18 19

000
FTUS41 KCLE 202300
TAFMFD
TAF
KMFD 202327Z 2100/2124 20014KT P6SM SCT050 BKN250
     FM210100 22015KT P6SM VCTS SCT045CB BKN120
      TEMPO 2102/2104 3SM TSRA BR BKN035CB
     FM210700 22012KT 6SM BR VCSH BKN040
     FM211000 23012KT 6SM BR VCSH SCT015 OVC030
      TEMPO 2110/2114 5SM -SHRA BR SCT009 OVC015
     FM211400 25011KT P6SM BKN035
     FM211900 28014G20KT P6SM VCSH BKN035=

USA.gov is the U.S. government's official web portal to all federal, state and local government web resources and services.